sensor_id;sensor_type;location;lat;lon;timestamp;pressure;altitude;pressure_sealevel;temperature;humidity
12468;BME280;57850;52.922;6.256;2023-04-23T00:00:11;100675.94;;;10.31;100.00
12468;BME280;57850;52.922;6.256;2023-04-23T00:02:39;100682.94;;;10.06;100.00
12468;BME280;57850;52.922;6.256;2023-04-23T00:05:10;100666.66;;;9.99;100.00
12468;BME280;57850;52.922;6.256;2023-04-23T00:07:40;100627.91;;;9.90;100.00
12468;BME280;57850;52.922;6.256;2023-04-23T00:10:08;100601.69;;;9.95;100.00
12468;BME280;57850;52.922;6.256;2023-04-23T00:12:36;100585.31;;;9.91;100.00
12468;BME280;57850;52.922;6.256;2023-04-23T00:15:04;100568.00;;;10.13;100.00
12468;BME280;57850;52.922;6.256;2023-04-23T00:17:31;100569.50;;;10.41;100.00
12468;BME280;57850;52.922;6.256;2023-04-23T00:19:57;100560.41;;;10.29;100.00
12468;BME280;57850;52.922;6.256;2023-04-23T00:22:24;100574.59;;;10.22;100.00
12468;BME280;57850;52.922;6.256;2023-04-23T00:24:53;100599.34;;;9.87;100.00
12468;BME280;57850;52.922;6.256;2023-04-23T00:27:19;100568.97;;;10.33;100.00
12468;BME280;57850;52.922;6.256;2023-04-23T00:29:46;100599.03;;;10.19;100.00
12468;BME280;57850;52.922;6.256;2023-04-23T00:32:12;100605.72;;;10.03;100.00
12468;BME280;57850;52.922;6.256;2023-04-23T00:34:39;100589.25;;;10.25;100.00
12468;BME280;57850;52.922;6.256;2023-04-23T00:37:06;100616.81;;;10.08;100.00
12468;BME280;57850;52.922;6.256;2023-04-23T00:39:32;100607.56;;;10.00;100.00
12468;BME280;57850;52.922;6.256;2023-04-23T00:42:03;100597.28;;;10.20;100.00
12468;BME280;57850;52.922;6.256;2023-04-23T00:44:35;100609.88;;;10.31;100.00
12468;BME280;57850;52.922;6.256;2023-04-23T00:47:02;100632.66;;;10.02;100.00
12468;BME280;57850;52.922;6.256;2023-04-23T00:49:30;100623.69;;;10.11;100.00
12468;BME280;57850;52.922;6.256;2023-04-23T00:51:56;100604.66;;;9.86;100.00
12468;BME280;57850;52.922;6.256;2023-04-23T00:54:24;100607.53;;;10.01;100.00
12468;BME280;57850;52.922;6.256;2023-04-23T00:56:52;100627.25;;;9.85;100.00
12468;BME280;57850;52.922;6.256;2023-04-23T00:59:20;100605.97;;;10.20;100.00
12468;BME280;57850;52.922;6.256;2023-04-23T01:01:47;100628.94;;;10.09;100.00
12468;BME280;57850;52.922;6.256;2023-04-23T01:04:15;100643.69;;;10.10;100.00
12468;BME280;57850;52.922;6.256;2023-04-23T01:06:43;100652.50;;;10.06;100.00
12468;BME280;57850;52.922;6.256;2023-04-23T01:09:12;100665.66;;;10.03;100.00
12468;BME280;57850;52.922;6.256;2023-04-23T01:11:39;100640.38;;;9.82;100.00
12468;BME280;57850;52.922;6.256;2023-04-23T01:14:08;100598.13;;;9.97;100.00
12468;BME280;57850;52.922;6.256;2023-04-23T01:16:36;100601.38;;;10.02;100.00
12468;BME280;57850;52.922;6.256;2023-04-23T01:19:04;100626.97;;;9.93;100.00
12468;BME280;57850;52.922;6.256;2023-04-23T01:21:31;100586.06;;;9.95;100.00
12468;BME280;57850;52.922;6.256;2023-04-23T01:24:00;100582.66;;;10.16;100.00
12468;BME280;57850;52.922;6.256;2023-04-23T01:26:27;100600.22;;;9.88;100.00
12468;BME280;57850;52.922;6.256;2023-04-23T01:28:54;100582.72;;;9.91;100.00
12468;BME280;57850;52.922;6.256;2023-04-23T01:31:21;100574.53;;;10.00;100.00
12468;BME280;57850;52.922;6.256;2023-04-23T01:33:48;100586.31;;;10.10;100.00
12468;BME280;57850;52.922;6.256;2023-04-23T01:36:16;100577.81;;;10.29;100.00
12468;BME280;57850;52.922;6.256;2023-04-23T01:38:43;100587.28;;;10.53;100.00
12468;BME280;57850;52.922;6.256;2023-04-23T01:41:11;100620.13;;;10.58;100.00
12468;BME280;57850;52.922;6.256;2023-04-23T01:43:38;100625.88;;;10.45;100.00
12468;BME280;57850;52.922;6.256;2023-04-23T01:46:07;100620.78;;;10.42;100.00
12468;BME280;57850;52.922;6.256;2023-04-23T01:48:34;100601.97;;;10.55;100.00
12468;BME280;57850;52.922;6.256;2023-04-23T01:51:00;100610.34;;;10.42;100.00
12468;BME280;57850;52.922;6.256;2023-04-23T01:53:27;100607.28;;;10.31;100.00
12468;BME280;57850;52.922;6.256;2023-04-23T01:55:54;100570.66;;;10.55;100.00
12468;BME280;57850;52.922;6.256;2023-04-23T01:58:22;100560.97;;;10.79;100.00
12468;BME280;57850;52.922;6.256;2023-04-23T02:00:49;100586.16;;;10.80;100.00
12468;BME280;57850;52.922;6.256;2023-04-23T02:03:16;100556.06;;;10.30;100.00
12468;BME280;57850;52.922;6.256;2023-04-23T02:05:43;100505.03;;;10.44;100.00
12468;BME280;57850;52.922;6.256;2023-04-23T02:08:11;100490.19;;;10.66;100.00
12468;BME280;57850;52.922;6.256;2023-04-23T02:10:37;100492.47;;;10.74;100.00
12468;BME280;57850;52.922;6.256;2023-04-23T02:13:04;100518.97;;;10.65;100.00
12468;BME280;57850;52.922;6.256;2023-04-23T02:15:32;100468.59;;;10.63;100.00
12468;BME280;57850;52.922;6.256;2023-04-23T02:17:58;100457.13;;;10.67;100.00
12468;BME280;57850;52.922;6.256;2023-04-23T02:20:25;100451.69;;;10.71;100.00
12468;BME280;57850;52.922;6.256;2023-04-23T02:22:52;100430.03;;;10.69;100.00
12468;BME280;57850;52.922;6.256;2023-04-23T02:25:18;100422.03;;;10.74;100.00
12468;BME280;57850;52.922;6.256;2023-04-23T02:27:46;100453.75;;;10.65;100.00
12468;BME280;57850;52.922;6.256;2023-04-23T02:30:12;100405.56;;;10.72;100.00
12468;BME280;57850;52.922;6.256;2023-04-23T02:32:40;100414.59;;;10.65;100.00
12468;BME280;57850;52.922;6.256;2023-04-23T02:35:08;100424.84;;;10.49;100.00
12468;BME280;57850;52.922;6.256;2023-04-23T02:37:35;100377.41;;;10.80;100.00
12468;BME280;57850;52.922;6.256;2023-04-23T02:40:03;100395.13;;;10.72;100.00
12468;BME280;57850;52.922;6.256;2023-04-23T02:42:30;100387.44;;;10.69;100.00
12468;BME280;57850;52.922;6.256;2023-04-23T02:44:57;100379.59;;;10.89;100.00
12468;BME280;57850;52.922;6.256;2023-04-23T02:47:23;100393.09;;;10.99;100.00
12468;BME280;57850;52.922;6.256;2023-04-23T02:49:51;100416.75;;;10.94;100.00
12468;BME280;57850;52.922;6.256;2023-04-23T02:52:18;100410.56;;;11.34;100.00
12468;BME280;57850;52.922;6.256;2023-04-23T02:54:45;100458.66;;;11.30;100.00
12468;BME280;57850;52.922;6.256;2023-04-23T02:57:12;100474.31;;;11.11;100.00
12468;BME280;57850;52.922;6.256;2023-04-23T02:59:41;100472.97;;;10.62;100.00
12468;BME280;57850;52.922;6.256;2023-04-23T03:02:07;100409.00;;;10.74;100.00
12468;BME280;57850;52.922;6.256;2023-04-23T03:04:34;100418.47;;;10.95;100.00
12468;BME280;57850;52.922;6.256;2023-04-23T03:07:02;100394.31;;;10.90;100.00
12468;BME280;57850;52.922;6.256;2023-04-23T03:09:28;100409.06;;;10.91;100.00
12468;BME280;57850;52.922;6.256;2023-04-23T03:11:55;100410.47;;;10.59;100.00
12468;BME280;57850;52.922;6.256;2023-04-23T03:14:21;100378.09;;;10.65;100.00
12468;BME280;57850;52.922;6.256;2023-04-23T03:16:48;100364.13;;;10.85;100.00
12468;BME280;57850;52.922;6.256;2023-04-23T03:19:15;100351.03;;;10.86;100.00
12468;BME280;57850;52.922;6.256;2023-04-23T03:21:41;100358.28;;;10.98;100.00
12468;BME280;57850;52.922;6.256;2023-04-23T03:24:11;100376.13;;;10.89;100.00
12468;BME280;57850;52.922;6.256;2023-04-23T03:26:39;100366.53;;;10.70;100.00
12468;BME280;57850;52.922;6.256;2023-04-23T03:29:05;100368.19;;;10.71;100.00
12468;BME280;57850;52.922;6.256;2023-04-23T03:31:32;100361.31;;;10.89;100.00
12468;BME280;57850;52.922;6.256;2023-04-23T03:33:58;100373.69;;;11.04;100.00
12468;BME280;57850;52.922;6.256;2023-04-23T03:36:25;100382.63;;;10.80;100.00
12468;BME280;57850;52.922;6.256;2023-04-23T03:38:52;100388.13;;;10.74;100.00
12468;BME280;57850;52.922;6.256;2023-04-23T03:41:20;100378.34;;;11.16;100.00
12468;BME280;57850;52.922;6.256;2023-04-23T03:43:46;100391.19;;;11.02;100.00
12468;BME280;57850;52.922;6.256;2023-04-23T03:46:13;100403.44;;;11.19;100.00
12468;BME280;57850;52.922;6.256;2023-04-23T03:48:39;100430.69;;;11.13;100.00
12468;BME280;57850;52.922;6.256;2023-04-23T03:51:06;100444.22;;;11.03;100.00
12468;BME280;57850;52.922;6.256;2023-04-23T03:53:33;100457.97;;;10.67;100.00
12468;BME280;57850;52.922;6.256;2023-04-23T03:55:59;100421.13;;;10.94;100.00
12468;BME280;57850;52.922;6.256;2023-04-23T03:58:27;100448.53;;;11.04;100.00
12468;BME280;57850;52.922;6.256;2023-04-23T04:00:53;100423.69;;;10.95;100.00
12468;BME280;57850;52.922;6.256;2023-04-23T04:03:20;100410.28;;;11.21;100.00
12468;BME280;57850;52.922;6.256;2023-04-23T04:05:46;100441.78;;;11.37;100.00
12468;BME280;57850;52.922;6.256;2023-04-23T04:08:13;100469.97;;;10.92;100.00
12468;BME280;57850;52.922;6.256;2023-04-23T04:10:39;100459.25;;;11.37;100.00
12468;BME280;57850;52.922;6.256;2023-04-23T04:13:06;100499.25;;;10.58;100.00
12468;BME280;57850;52.922;6.256;2023-04-23T04:15:34;100453.84;;;10.82;100.00
12468;BME280;57850;52.922;6.256;2023-04-23T04:18:01;100446.78;;;11.04;100.00
12468;BME280;57850;52.922;6.256;2023-04-23T04:20:27;100465.38;;;10.97;100.00
12468;BME280;57850;52.922;6.256;2023-04-23T04:22:54;100470.41;;;10.81;100.00
12468;BME280;57850;52.922;6.256;2023-04-23T04:25:20;100465.13;;;10.62;100.00
12468;BME280;57850;52.922;6.256;2023-04-23T04:27:48;100456.28;;;10.66;100.00
12468;BME280;57850;52.922;6.256;2023-04-23T04:30:14;100450.00;;;10.50;100.00
12468;BME280;57850;52.922;6.256;2023-04-23T04:32:43;100432.72;;;10.48;100.00
12468;BME280;57850;52.922;6.256;2023-04-23T04:35:10;100397.56;;;10.77;100.00
12468;BME280;57850;52.922;6.256;2023-04-23T04:37:38;100411.22;;;11.02;100.00
12468;BME280;57850;52.922;6.256;2023-04-23T04:40:07;100452.41;;;10.95;100.00
12468;BME280;57850;52.922;6.256;2023-04-23T04:42:35;100454.38;;;10.70;100.00
12468;BME280;57850;52.922;6.256;2023-04-23T04:45:04;100447.59;;;10.66;100.00
12468;BME280;57850;52.922;6.256;2023-04-23T04:47:32;100424.91;;;10.68;100.00
12468;BME280;57850;52.922;6.256;2023-04-23T04:50:01;100393.50;;;10.69;100.00
12468;BME280;57850;52.922;6.256;2023-04-23T04:52:27;100407.94;;;10.58;100.00
12468;BME280;57850;52.922;6.256;2023-04-23T04:54:54;100360.66;;;10.84;100.00
12468;BME280;57850;52.922;6.256;2023-04-23T04:57:20;100362.81;;;10.95;100.00
12468;BME280;57850;52.922;6.256;2023-04-23T04:59:47;100355.38;;;10.67;100.00
12468;BME280;57850;52.922;6.256;2023-04-23T05:02:14;100336.41;;;10.82;100.00
12468;BME280;57850;52.922;6.256;2023-04-23T05:04:42;100338.75;;;10.88;100.00
12468;BME280;57850;52.922;6.256;2023-04-23T05:07:10;100343.75;;;10.74;100.00
12468;BME280;57850;52.922;6.256;2023-04-23T05:09:37;100320.41;;;11.08;100.00
12468;BME280;57850;52.922;6.256;2023-04-23T05:12:04;100363.06;;;10.70;100.00
12468;BME280;57850;52.922;6.256;2023-04-23T05:14:31;100331.19;;;10.82;100.00
12468;BME280;57850;52.922;6.256;2023-04-23T05:16:59;100318.63;;;11.09;100.00
12468;BME280;57850;52.922;6.256;2023-04-23T05:19:25;100328.09;;;11.11;100.00
12468;BME280;57850;52.922;6.256;2023-04-23T05:21:52;100342.13;;;11.09;100.00
12468;BME280;57850;52.922;6.256;2023-04-23T05:24:19;100354.19;;;11.30;100.00
12468;BME280;57850;52.922;6.256;2023-04-23T05:26:46;100372.25;;;10.97;100.00
12468;BME280;57850;52.922;6.256;2023-04-23T05:29:12;100378.94;;;11.21;100.00
12468;BME280;57850;52.922;6.256;2023-04-23T05:31:43;100376.28;;;11.42;100.00
12468;BME280;57850;52.922;6.256;2023-04-23T05:34:10;100372.41;;;11.86;100.00
12468;BME280;57850;52.922;6.256;2023-04-23T05:36:37;100409.00;;;11.86;100.00
12468;BME280;57850;52.922;6.256;2023-04-23T05:39:04;100430.28;;;11.60;100.00
12468;BME280;57850;52.922;6.256;2023-04-23T05:41:32;100440.59;;;11.44;100.00
12468;BME280;57850;52.922;6.256;2023-04-23T05:43:59;100416.28;;;11.61;100.00
12468;BME280;57850;52.922;6.256;2023-04-23T05:46:25;100419.91;;;11.58;100.00
12468;BME280;57850;52.922;6.256;2023-04-23T05:48:52;100396.41;;;11.40;100.00
12468;BME280;57850;52.922;6.256;2023-04-23T05:51:18;100363.78;;;11.65;100.00
12468;BME280;57850;52.922;6.256;2023-04-23T05:53:46;100390.66;;;11.50;100.00
12468;BME280;57850;52.922;6.256;2023-04-23T05:56:12;100357.59;;;11.87;100.00
12468;BME280;57850;52.922;6.256;2023-04-23T05:58:40;100382.13;;;11.47;100.00
12468;BME280;57850;52.922;6.256;2023-04-23T06:01:07;100349.75;;;11.68;100.00
12468;BME280;57850;52.922;6.256;2023-04-23T06:03:34;100349.22;;;11.61;100.00
12468;BME280;57850;52.922;6.256;2023-04-23T06:06:01;100347.75;;;11.56;100.00
12468;BME280;57850;52.922;6.256;2023-04-23T06:08:28;100322.84;;;11.66;100.00
12468;BME280;57850;52.922;6.256;2023-04-23T06:10:54;100327.34;;;11.62;100.00
12468;BME280;57850;52.922;6.256;2023-04-23T06:13:21;100320.28;;;11.83;100.00
12468;BME280;57850;52.922;6.256;2023-04-23T06:15:49;100322.75;;;11.86;100.00
12468;BME280;57850;52.922;6.256;2023-04-23T06:18:15;100323.13;;;11.78;100.00
12468;BME280;57850;52.922;6.256;2023-04-23T06:20:42;100297.91;;;11.95;100.00
12468;BME280;57850;52.922;6.256;2023-04-23T06:23:09;100313.91;;;11.89;100.00
12468;BME280;57850;52.922;6.256;2023-04-23T06:25:36;100302.88;;;12.33;100.00
12468;BME280;57850;52.922;6.256;2023-04-23T06:28:02;100322.75;;;12.20;100.00
12468;BME280;57850;52.922;6.256;2023-04-23T06:30:29;100321.41;;;12.29;100.00
12468;BME280;57850;52.922;6.256;2023-04-23T06:32:57;100290.66;;;12.34;100.00
12468;BME280;57850;52.922;6.256;2023-04-23T06:35:23;100290.47;;;12.37;100.00
12468;BME280;57850;52.922;6.256;2023-04-23T06:37:50;100305.50;;;12.33;100.00
12468;BME280;57850;52.922;6.256;2023-04-23T06:40:16;100284.78;;;12.29;100.00
12468;BME280;57850;52.922;6.256;2023-04-23T06:42:43;100274.66;;;12.23;100.00
12468;BME280;57850;52.922;6.256;2023-04-23T06:45:10;100273.72;;;12.57;100.00
12468;BME280;57850;52.922;6.256;2023-04-23T06:47:37;100276.78;;;12.65;100.00
12468;BME280;57850;52.922;6.256;2023-04-23T06:50:06;100307.03;;;12.86;100.00
12468;BME280;57850;52.922;6.256;2023-04-23T06:52:33;100319.22;;;12.54;100.00
12468;BME280;57850;52.922;6.256;2023-04-23T06:55:00;100291.56;;;12.81;100.00
12468;BME280;57850;52.922;6.256;2023-04-23T06:57:27;100307.59;;;12.75;100.00
12468;BME280;57850;52.922;6.256;2023-04-23T06:59:53;100308.97;;;12.82;100.00
12468;BME280;57850;52.922;6.256;2023-04-23T07:02:20;100319.38;;;12.84;100.00
12468;BME280;57850;52.922;6.256;2023-04-23T07:04:46;100322.94;;;12.66;100.00
12468;BME280;57850;52.922;6.256;2023-04-23T07:07:14;100329.25;;;12.95;100.00
12468;BME280;57850;52.922;6.256;2023-04-23T07:09:42;100358.66;;;13.00;100.00
12468;BME280;57850;52.922;6.256;2023-04-23T07:12:09;100317.88;;;13.43;100.00
12468;BME280;57850;52.922;6.256;2023-04-23T07:14:36;100400.00;;;13.10;100.00
12468;BME280;57850;52.922;6.256;2023-04-23T07:17:02;100377.47;;;13.06;100.00
12468;BME280;57850;52.922;6.256;2023-04-23T07:19:29;100356.16;;;13.29;100.00
12468;BME280;57850;52.922;6.256;2023-04-23T07:21:56;100393.25;;;13.37;100.00
12468;BME280;57850;52.922;6.256;2023-04-23T07:24:24;100382.38;;;13.29;100.00
12468;BME280;57850;52.922;6.256;2023-04-23T07:26:51;100389.56;;;13.57;100.00
12468;BME280;57850;52.922;6.256;2023-04-23T07:29:18;100378.81;;;14.07;100.00
12468;BME280;57850;52.922;6.256;2023-04-23T07:31:44;100414.50;;;13.64;100.00
12468;BME280;57850;52.922;6.256;2023-04-23T07:34:11;100387.91;;;13.86;100.00
12468;BME280;57850;52.922;6.256;2023-04-23T07:36:37;100439.34;;;13.88;100.00
12468;BME280;57850;52.922;6.256;2023-04-23T07:39:04;100405.84;;;14.23;100.00
12468;BME280;57850;52.922;6.256;2023-04-23T07:41:33;100411.38;;;14.48;100.00
12468;BME280;57850;52.922;6.256;2023-04-23T07:43:59;100425.78;;;14.85;100.00
12468;BME280;57850;52.922;6.256;2023-04-23T07:46:26;100480.84;;;14.43;100.00
12468;BME280;57850;52.922;6.256;2023-04-23T07:48:52;100511.72;;;14.54;100.00
12468;BME280;57850;52.922;6.256;2023-04-23T07:51:23;100504.50;;;14.57;100.00
12468;BME280;57850;52.922;6.256;2023-04-23T07:53:53;100532.16;;;14.48;100.00
12468;BME280;57850;52.922;6.256;2023-04-23T07:56:21;100508.88;;;14.72;100.00
12468;BME280;57850;52.922;6.256;2023-04-23T07:58:50;100545.59;;;14.88;100.00
12468;BME280;57850;52.922;6.256;2023-04-23T08:01:18;100579.34;;;14.80;100.00
12468;BME280;57850;52.922;6.256;2023-04-23T08:03:45;100602.56;;;14.87;100.00
12468;BME280;57850;52.922;6.256;2023-04-23T08:06:13;100574.56;;;15.16;100.00
12468;BME280;57850;52.922;6.256;2023-04-23T08:08:39;100596.47;;;15.31;100.00
12468;BME280;57850;52.922;6.256;2023-04-23T08:11:06;100563.00;;;15.77;100.00
12468;BME280;57850;52.922;6.256;2023-04-23T08:13:32;100591.09;;;15.62;100.00
12468;BME280;57850;52.922;6.256;2023-04-23T08:16:00;100578.41;;;15.83;100.00
12468;BME280;57850;52.922;6.256;2023-04-23T08:18:27;100593.22;;;15.98;100.00
12468;BME280;57850;52.922;6.256;2023-04-23T08:20:54;100632.06;;;15.66;100.00
12468;BME280;57850;52.922;6.256;2023-04-23T08:23:21;100631.22;;;15.94;100.00
12468;BME280;57850;52.922;6.256;2023-04-23T08:25:48;100625.75;;;15.69;100.00
12468;BME280;57850;52.922;6.256;2023-04-23T08:28:14;100586.25;;;16.11;100.00
12468;BME280;57850;52.922;6.256;2023-04-23T08:30:41;100607.84;;;16.30;100.00
12468;BME280;57850;52.922;6.256;2023-04-23T08:33:09;100581.47;;;16.58;100.00
12468;BME280;57850;52.922;6.256;2023-04-23T08:35:36;100619.38;;;16.83;100.00
12468;BME280;57850;52.922;6.256;2023-04-23T08:38:02;100643.03;;;16.70;100.00
12468;BME280;57850;52.922;6.256;2023-04-23T08:40:30;100671.63;;;16.21;100.00
12468;BME280;57850;52.922;6.256;2023-04-23T08:43:01;100663.81;;;16.34;100.00
12468;BME280;57850;52.922;6.256;2023-04-23T08:45:29;100672.50;;;16.48;100.00
12468;BME280;57850;52.922;6.256;2023-04-23T08:47:57;100644.91;;;17.22;100.00
12468;BME280;57850;52.922;6.256;2023-04-23T08:50:28;100685.88;;;17.40;100.00
12468;BME280;57850;52.922;6.256;2023-04-23T08:52:56;100665.97;;;17.86;100.00
12468;BME280;57850;52.922;6.256;2023-04-23T08:55:23;100675.38;;;17.65;100.00
12468;BME280;57850;52.922;6.256;2023-04-23T08:57:50;100718.75;;;17.22;100.00
12468;BME280;57850;52.922;6.256;2023-04-23T09:00:18;100710.69;;;17.50;100.00
12468;BME280;57850;52.922;6.256;2023-04-23T09:02:47;100702.22;;;17.97;100.00
12468;BME280;57850;52.922;6.256;2023-04-23T09:05:14;100743.66;;;17.30;100.00
12468;BME280;57850;52.922;6.256;2023-04-23T09:07:43;100735.94;;;17.27;100.00
12468;BME280;57850;52.922;6.256;2023-04-23T09:10:10;100719.63;;;17.74;100.00
12468;BME280;57850;52.922;6.256;2023-04-23T09:12:39;100721.94;;;18.42;100.00
12468;BME280;57850;52.922;6.256;2023-04-23T09:15:07;100698.88;;;19.40;100.00
12468;BME280;57850;52.922;6.256;2023-04-23T09:17:37;100756.56;;;18.75;100.00
12468;BME280;57850;52.922;6.256;2023-04-23T09:20:06;100778.03;;;18.07;100.00
12468;BME280;57850;52.922;6.256;2023-04-23T09:22:40;100776.59;;;18.29;100.00
12468;BME280;57850;52.922;6.256;2023-04-23T09:25:09;100784.28;;;18.06;100.00
12468;BME280;57850;52.922;6.256;2023-04-23T09:27:37;100757.13;;;18.30;100.00
12468;BME280;57850;52.922;6.256;2023-04-23T09:30:04;100771.16;;;17.92;100.00
12468;BME280;57850;52.922;6.256;2023-04-23T09:32:32;100749.81;;;18.33;100.00
12468;BME280;57850;52.922;6.256;2023-04-23T09:35:01;100733.53;;;19.01;100.00
12468;BME280;57850;52.922;6.256;2023-04-23T09:37:28;100719.47;;;19.83;100.00
12468;BME280;57850;52.922;6.256;2023-04-23T09:39:57;100743.47;;;19.57;100.00
12468;BME280;57850;52.922;6.256;2023-04-23T09:42:27;100731.00;;;19.82;100.00
12468;BME280;57850;52.922;6.256;2023-04-23T09:44:58;100784.38;;;18.43;100.00
12468;BME280;57850;52.922;6.256;2023-04-23T09:47:25;100696.41;;;20.51;100.00
12468;BME280;57850;52.922;6.256;2023-04-23T09:49:51;100692.97;;;20.82;100.00
12468;BME280;57850;52.922;6.256;2023-04-23T09:52:18;100750.56;;;19.68;100.00
12468;BME280;57850;52.922;6.256;2023-04-23T09:54:46;100720.38;;;20.50;100.00
12468;BME280;57850;52.922;6.256;2023-04-23T09:57:13;100756.94;;;19.54;100.00
12468;BME280;57850;52.922;6.256;2023-04-23T09:59:41;100709.03;;;20.48;100.00
12468;BME280;57850;52.922;6.256;2023-04-23T10:02:09;100713.94;;;20.19;100.00
12468;BME280;57850;52.922;6.256;2023-04-23T10:04:37;100752.34;;;19.09;100.00
12468;BME280;57850;52.922;6.256;2023-04-23T10:07:04;100753.22;;;18.97;100.00
12468;BME280;57850;52.922;6.256;2023-04-23T10:09:33;100687.81;;;20.59;100.00
12468;BME280;57850;52.922;6.256;2023-04-23T10:12:01;100731.72;;;19.72;100.00
12468;BME280;57850;52.922;6.256;2023-04-23T10:14:28;100673.59;;;21.34;100.00
12468;BME280;57850;52.922;6.256;2023-04-23T10:16:58;100670.47;;;20.98;100.00
12468;BME280;57850;52.922;6.256;2023-04-23T10:19:26;100700.13;;;20.38;100.00
12468;BME280;57850;52.922;6.256;2023-04-23T10:21:54;100734.13;;;19.87;100.00
12468;BME280;57850;52.922;6.256;2023-04-23T10:24:25;100695.28;;;20.43;100.00
12468;BME280;57850;52.922;6.256;2023-04-23T10:26:55;100674.69;;;21.00;100.00
12468;BME280;57850;52.922;6.256;2023-04-23T10:29:26;100677.78;;;20.73;100.00
12468;BME280;57850;52.922;6.256;2023-04-23T10:31:53;100644.91;;;21.49;100.00
12468;BME280;57850;52.922;6.256;2023-04-23T10:34:23;100680.94;;;20.56;100.00
12468;BME280;57850;52.922;6.256;2023-04-23T10:36:50;100676.44;;;20.79;100.00
12468;BME280;57850;52.922;6.256;2023-04-23T10:39:18;100728.13;;;19.96;100.00
12468;BME280;57850;52.922;6.256;2023-04-23T10:41:45;100757.56;;;19.21;100.00
12468;BME280;57850;52.922;6.256;2023-04-23T10:44:13;100717.53;;;19.96;100.00
12468;BME280;57850;52.922;6.256;2023-04-23T10:46:49;100701.06;;;20.25;100.00
12468;BME280;57850;52.922;6.256;2023-04-23T10:49:17;100722.44;;;19.67;100.00
12468;BME280;57850;52.922;6.256;2023-04-23T10:51:46;100683.25;;;20.50;100.00
12468;BME280;57850;52.922;6.256;2023-04-23T10:54:14;100655.50;;;21.08;100.00
12468;BME280;57850;52.922;6.256;2023-04-23T10:56:41;100715.75;;;19.50;100.00
12468;BME280;57850;52.922;6.256;2023-04-23T10:59:17;100701.97;;;19.69;100.00
12468;BME280;57850;52.922;6.256;2023-04-23T11:01:45;100676.38;;;20.36;100.00
12468;BME280;57850;52.922;6.256;2023-04-23T11:04:22;100646.94;;;21.57;100.00
12468;BME280;57850;52.922;6.256;2023-04-23T11:06:52;100652.94;;;21.59;100.00
12468;BME280;57850;52.922;6.256;2023-04-23T11:09:38;100604.31;;;22.19;100.00
12468;BME280;57850;52.922;6.256;2023-04-23T11:12:07;100632.13;;;21.02;100.00
12468;BME280;57850;52.922;6.256;2023-04-23T11:14:36;100680.44;;;19.96;100.00
12468;BME280;57850;52.922;6.256;2023-04-23T11:17:06;100675.16;;;20.18;100.00
12468;BME280;57850;52.922;6.256;2023-04-23T11:19:36;100618.38;;;21.49;100.00
12468;BME280;57850;52.922;6.256;2023-04-23T11:22:05;100643.72;;;20.90;100.00
12468;BME280;57850;52.922;6.256;2023-04-23T11:24:33;100673.50;;;20.17;100.00
12468;BME280;57850;52.922;6.256;2023-04-23T11:27:05;100662.66;;;20.20;100.00
12468;BME280;57850;52.922;6.256;2023-04-23T11:29:32;100632.22;;;20.79;100.00
12468;BME280;57850;52.922;6.256;2023-04-23T11:31:59;100630.22;;;20.93;100.00
12468;BME280;57850;52.922;6.256;2023-04-23T11:34:25;100591.25;;;21.46;100.00
12468;BME280;57850;52.922;6.256;2023-04-23T11:36:53;100533.56;;;22.47;100.00
12468;BME280;57850;52.922;6.256;2023-04-23T11:39:21;100513.84;;;22.68;100.00
12468;BME280;57850;52.922;6.256;2023-04-23T11:41:50;100506.75;;;23.25;100.00
12468;BME280;57850;52.922;6.256;2023-04-23T11:44:18;100566.22;;;21.69;100.00
12468;BME280;57850;52.922;6.256;2023-04-23T11:46:45;100535.22;;;22.19;100.00
12468;BME280;57850;52.922;6.256;2023-04-23T11:49:12;100565.34;;;21.68;100.00
12468;BME280;57850;52.922;6.256;2023-04-23T11:51:42;100573.69;;;21.54;100.00
12468;BME280;57850;52.922;6.256;2023-04-23T11:54:10;100573.81;;;21.53;100.00
12468;BME280;57850;52.922;6.256;2023-04-23T11:56:39;100552.06;;;21.68;100.00
12468;BME280;57850;52.922;6.256;2023-04-23T11:59:06;100553.75;;;22.00;100.00
12468;BME280;57850;52.922;6.256;2023-04-23T12:01:40;100535.09;;;22.30;100.00
12468;BME280;57850;52.922;6.256;2023-04-23T12:04:14;100498.03;;;22.57;100.00
12468;BME280;57850;52.922;6.256;2023-04-23T12:06:43;100486.69;;;22.55;100.00
12468;BME280;57850;52.922;6.256;2023-04-23T12:09:10;100487.09;;;22.22;100.00
12468;BME280;57850;52.922;6.256;2023-04-23T12:11:39;100532.38;;;21.41;100.00
12468;BME280;57850;52.922;6.256;2023-04-23T12:14:06;100534.94;;;21.42;100.00
12468;BME280;57850;52.922;6.256;2023-04-23T12:16:35;100527.69;;;21.23;100.00
12468;BME280;57850;52.922;6.256;2023-04-23T12:19:03;100494.34;;;22.01;100.00
12468;BME280;57850;52.922;6.256;2023-04-23T12:21:30;100469.06;;;22.54;100.00
12468;BME280;57850;52.922;6.256;2023-04-23T12:23:57;100462.19;;;22.32;100.00
12468;BME280;57850;52.922;6.256;2023-04-23T12:26:25;100441.31;;;22.85;100.00
12468;BME280;57850;52.922;6.256;2023-04-23T12:28:54;100449.88;;;22.41;100.00
12468;BME280;57850;52.922;6.256;2023-04-23T12:31:24;100481.47;;;22.06;100.00
12468;BME280;57850;52.922;6.256;2023-04-23T12:34:02;100457.00;;;22.50;100.00
12468;BME280;57850;52.922;6.256;2023-04-23T12:36:29;100456.59;;;22.26;100.00
12468;BME280;57850;52.922;6.256;2023-04-23T12:39:20;100491.25;;;21.65;100.00
12468;BME280;57850;52.922;6.256;2023-04-23T12:41:49;100467.97;;;21.88;100.00